Time;durP1;ratioP1;P1;durP2;ratioP2;P2;SDS_P1;SDS_P2;PMS_P1;PMS_P2;Temp;Humidity;BMP_temperature;BMP_pressure;BME280_temperature;BME280_humidity;BME280_pressure;Samples;Min_cycle;Max_cycle;Signal;HPM_P1;HPM_P2
2022/05/08 00:00:18;;;;;;;6.97;3.10;;;;;;;22.08;39.82;102870.66;5034344;28;20040;-71
2022/05/08 00:02:44;;;;;;;6.43;3.00;;;;;;;22.06;39.72;102865.50;5033480;28;20110;-71
2022/05/08 00:05:12;;;;;;;7.18;2.90;;;;;;;22.02;39.72;102864.94;5034937;28;20040;-71
2022/05/08 00:07:37;;;;;;;4.90;2.88;;;;;;;22.06;39.76;102864.66;5019236;28;20547;-71
2022/05/08 00:10:04;;;;;;;5.90;3.00;;;;;;;22.03;39.96;102863.94;5021606;28;20040;-71
2022/05/08 00:12:29;;;;;;;6.13;3.03;;;;;;;22.02;39.60;102864.94;5035794;28;20167;-71
2022/05/08 00:14:55;;;;;;;5.97;2.80;;;;;;;21.98;39.62;102860.91;5037033;28;20456;-71
2022/05/08 00:17:21;;;;;;;6.05;2.50;;;;;;;21.96;39.69;102865.53;5044008;28;20037;-71
2022/05/08 00:19:47;;;;;;;6.80;2.70;;;;;;;21.98;39.84;102866.22;5035096;28;20040;-71
2022/05/08 00:22:13;;;;;;;5.72;2.83;;;;;;;21.99;39.74;102864.38;5036410;28;20049;-71
2022/05/08 00:24:40;;;;;;;6.68;2.78;;;;;;;21.96;39.91;102865.53;5036239;28;20055;-71
2022/05/08 00:27:06;;;;;;;6.03;2.50;;;;;;;22.03;39.83;102863.13;5038183;28;20037;-71
2022/05/08 00:29:32;;;;;;;4.60;2.35;;;;;;;21.91;39.86;102857.16;5049926;28;20170;-71
2022/05/08 00:31:58;;;;;;;3.92;2.53;;;;;;;21.95;39.78;102866.50;5041324;28;20043;-71
2022/05/08 00:34:24;;;;;;;4.80;2.80;;;;;;;21.90;39.60;102851.97;5037203;28;20029;-71
2022/05/08 00:36:51;;;;;;;7.18;3.13;;;;;;;21.93;39.88;102867.63;5044982;28;20116;-71
2022/05/08 00:39:18;;;;;;;5.65;2.70;;;;;;;21.98;39.63;102868.84;5037928;28;20040;-71
2022/05/08 00:41:47;;;;;;;5.32;2.90;;;;;;;21.96;39.81;102870.00;5041654;28;20041;-71
2022/05/08 00:44:13;;;;;;;4.95;2.75;;;;;;;21.99;39.85;102870.53;5023690;28;20578;-71
2022/05/08 00:46:39;;;;;;;6.22;2.83;;;;;;;21.92;39.64;102866.78;5042208;28;20106;-71
2022/05/08 00:49:05;;;;;;;3.97;2.45;;;;;;;21.91;39.43;102866.94;5042498;28;20114;-71
2022/05/08 00:51:31;;;;;;;5.07;2.70;;;;;;;21.87;39.84;102861.06;5041980;28;20119;-71
2022/05/08 00:54:00;;;;;;;5.47;2.55;;;;;;;21.85;39.65;102862.19;5041377;28;20513;-71
2022/05/08 00:56:26;;;;;;;4.70;2.80;;;;;;;21.87;39.58;102866.38;5035494;28;20040;-71
2022/05/08 00:58:53;;;;;;;5.63;2.85;;;;;;;21.91;39.52;102869.59;5034434;28;20033;-71
2022/05/08 01:01:20;;;;;;;5.10;2.95;;;;;;;21.88;39.54;102856.59;5023010;28;20064;-71
2022/05/08 01:03:46;;;;;;;5.95;3.00;;;;;;;21.87;39.61;102858.41;5034464;28;20518;-71
2022/05/08 01:06:14;;;;;;;5.32;2.78;;;;;;;21.87;39.71;102862.88;5036069;28;20040;-71
2022/05/08 01:08:47;;;;;;;5.22;2.50;;;;;;;21.82;39.70;102854.53;5038976;28;20048;-71
2022/05/08 01:11:13;;;;;;;6.28;3.08;;;;;;;21.89;39.30;102855.63;5039740;28;20045;-71
2022/05/08 01:13:41;;;;;;;5.13;2.50;;;;;;;21.87;39.42;102855.75;5035631;28;20063;-71
2022/05/08 01:16:08;;;;;;;6.57;2.80;;;;;;;21.86;39.39;102854.09;5037444;28;20044;-71
2022/05/08 01:18:34;;;;;;;6.75;2.83;;;;;;;21.86;39.61;102853.25;5034000;28;20100;-71
2022/05/08 01:21:00;;;;;;;3.95;2.50;;;;;;;21.84;39.31;102852.56;5034895;28;20052;-71
2022/05/08 01:23:25;;;;;;;5.78;2.67;;;;;;;21.86;39.53;102850.59;5034300;28;20136;-71
2022/05/08 01:25:55;;;;;;;4.93;2.40;;;;;;;21.83;39.34;102851.72;5034945;28;20056;-71
2022/05/08 01:28:21;;;;;;;;;;;;;;;21.80;39.45;102845.88;5025293;28;20041;-71
2022/05/08 01:30:50;;;;;;;4.03;2.45;;;;;;;21.80;39.28;102859.16;5040186;28;20048;-71
2022/05/08 01:33:17;;;;;;;3.88;2.38;;;;;;;21.80;39.30;102852.03;5034570;28;20452;-71
2022/05/08 01:35:44;;;;;;;4.05;2.42;;;;;;;21.79;39.16;102858.31;5042843;28;20832;-71
2022/05/08 01:38:12;;;;;;;6.05;2.65;;;;;;;21.78;39.44;102858.47;5036872;28;20058;-71
2022/05/08 01:40:39;;;;;;;3.63;2.28;;;;;;;21.78;39.41;102859.28;5040451;28;20043;-71
2022/05/08 01:43:05;;;;;;;3.55;2.40;;;;;;;21.76;39.49;102861.25;5040662;28;20195;-71
2022/05/08 01:45:32;;;;;;;4.10;2.40;;;;;;;21.77;39.74;102862.09;5038907;28;20036;-71
2022/05/08 01:50:42;;;;;;;5.47;2.45;;;;;;;21.79;39.35;102858.31;5045747;28;20045;-71
2022/05/08 01:53:08;;;;;;;7.50;2.75;;;;;;;21.77;39.37;102862.09;5036755;28;20028;-71
2022/05/08 01:55:35;;;;;;;4.20;2.40;;;;;;;21.74;39.59;102855.25;5040786;28;20056;-71
2022/05/08 01:58:01;;;;;;;5.07;2.40;;;;;;;21.73;39.30;102860.72;5038104;28;20041;-71
2022/05/08 02:00:28;;;;;;;5.15;2.50;;;;;;;21.73;39.61;102858.91;5020936;28;20037;-71
2022/05/08 02:02:58;;;;;;;5.55;2.80;;;;;;;21.74;39.28;102862.38;5038691;28;20048;-71
2022/05/08 02:05:23;;;;;;;4.05;2.38;;;;;;;21.72;39.39;102854.53;5035882;28;20068;-71
2022/05/08 02:07:49;;;;;;;6.22;2.70;;;;;;;21.72;39.31;102870.44;5038401;28;20032;-71
2022/05/08 02:10:16;;;;;;;5.85;2.85;;;;;;;21.73;39.45;102866.03;5036598;28;20135;-71
2022/05/08 02:12:43;;;;;;;5.28;2.63;;;;;;;21.77;39.47;102862.94;5042742;28;20036;-71
2022/05/08 02:15:10;;;;;;;4.53;2.50;;;;;;;21.66;39.38;102863.91;5038904;28;20538;-71
2022/05/08 02:17:37;;;;;;;5.35;2.60;;;;;;;21.76;39.20;102866.56;5036002;28;20041;-71
2022/05/08 02:20:06;;;;;;;3.67;2.22;;;;;;;21.73;39.37;102868.66;5012791;28;20108;-71
2022/05/08 02:22:35;;;;;;;3.75;2.15;;;;;;;21.70;39.23;102862.66;5038101;28;20701;-71
2022/05/08 02:25:01;;;;;;;6.87;2.57;;;;;;;21.73;39.29;102866.84;5035398;28;20080;-71
2022/05/08 02:27:35;;;;;;;6.15;2.60;;;;;;;21.67;39.37;102868.25;5012481;28;20467;-71
2022/05/08 02:30:00;;;;;;;4.72;2.50;;;;;;;21.62;39.42;102870.50;5038023;28;20043;-71
2022/05/08 02:32:26;;;;;;;5.13;2.55;;;;;;;21.69;39.05;102870.75;5030804;28;20036;-71
2022/05/08 02:34:51;;;;;;;4.05;2.10;;;;;;;21.70;39.17;102867.94;5037346;28;20047;-71
2022/05/08 02:37:17;;;;;;;4.75;2.15;;;;;;;21.67;39.23;102860.28;5012962;28;20082;-71
2022/05/08 02:39:43;;;;;;;3.83;2.25;;;;;;;21.69;39.61;102860.97;5038570;28;20049;-71
2022/05/08 02:42:08;;;;;;;4.03;2.40;;;;;;;21.65;39.50;102854.28;5034103;28;20052;-71
2022/05/08 02:44:34;;;;;;;4.93;2.75;;;;;;;21.67;39.40;102854.97;5036057;28;20045;-71
2022/05/08 02:46:59;;;;;;;3.83;2.22;;;;;;;21.63;39.45;102855.41;5038925;28;20376;-71
2022/05/08 02:49:26;;;;;;;5.85;2.42;;;;;;;21.66;39.37;102860.44;5034393;28;20040;-71
2022/05/08 02:51:51;;;;;;;4.63;2.20;;;;;;;21.63;39.17;102863.38;5034816;28;20040;-71
2022/05/08 02:54:17;;;;;;;3.67;2.22;;;;;;;21.66;39.21;102855.97;5037323;28;20029;-71
2022/05/08 02:59:26;;;;;;;4.65;2.03;;;;;;;21.66;39.31;102863.91;5035490;28;20657;-71
2022/05/08 03:01:52;;;;;;;4.28;2.30;;;;;;;21.67;39.19;102870.88;5035558;28;20033;-71
2022/05/08 03:04:18;;;;;;;5.20;2.67;;;;;;;21.65;39.24;102861.41;5035812;28;20638;-71
2022/05/08 03:06:43;;;;;;;2.83;2.08;;;;;;;21.61;39.06;102858.22;5039005;28;20037;-71
2022/05/08 03:09:09;;;;;;;3.05;2.10;;;;;;;21.67;39.33;102862.94;5038624;28;20036;-71
2022/05/08 03:11:36;;;;;;;4.50;2.45;;;;;;;21.65;39.09;102859.59;5039535;28;20809;-71
2022/05/08 03:14:01;;;;;;;4.47;2.38;;;;;;;21.54;39.13;102851.78;5017769;28;20198;-71
2022/05/08 03:16:30;;;;;;;4.28;2.38;;;;;;;21.63;39.20;102866.03;5037601;28;20040;-71
2022/05/08 03:18:55;;;;;;;2.80;1.90;;;;;;;21.62;39.25;102859.88;5016185;28;20059;-71
2022/05/08 03:21:22;;;;;;;3.97;2.30;;;;;;;21.62;39.31;102869.66;5033962;28;20029;-71
2022/05/08 03:23:48;;;;;;;5.25;2.50;;;;;;;21.58;39.20;102861.16;5037616;28;20073;-71
2022/05/08 03:26:16;;;;;;;4.05;2.20;;;;;;;21.59;39.09;102860.16;5042293;28;20112;-71
2022/05/08 03:28:42;;;;;;;4.45;2.20;;;;;;;21.58;39.09;102862.97;5037897;28;20662;-71
2022/05/08 03:31:09;;;;;;;4.32;2.28;;;;;;;21.56;39.03;102859.63;5018399;28;20047;-71
2022/05/08 03:33:36;;;;;;;5.10;2.20;;;;;;;21.53;39.03;102870.50;5018146;28;20472;-71
2022/05/08 03:36:03;;;;;;;3.53;2.00;;;;;;;21.54;39.23;102873.00;5040478;28;20063;-71
2022/05/08 03:38:30;;;;;;;5.22;2.40;;;;;;;21.50;39.04;102874.25;5039210;28;20569;-71
2022/05/08 03:40:56;;;;;;;4.78;2.10;;;;;;;21.47;39.29;102866.59;5037279;28;20060;-71
2022/05/08 03:43:22;;;;;;;4.15;2.20;;;;;;;21.52;39.16;102874.97;5038558;28;20039;-71
2022/05/08 03:45:49;;;;;;;3.97;2.30;;;;;;;21.52;39.19;102874.97;5036571;28;20478;-71
2022/05/08 03:48:15;;;;;;;5.20;2.40;;;;;;;21.52;39.15;102877.59;5028037;28;20044;-71
2022/05/08 03:50:41;;;;;;;4.80;2.10;;;;;;;21.48;39.31;102873.56;5032885;28;20041;-71
2022/05/08 03:53:07;;;;;;;3.83;2.10;;;;;;;21.51;39.09;102873.28;5037181;28;20059;-71
2022/05/08 03:55:33;;;;;;;4.97;1.90;;;;;;;21.50;38.85;102879.56;5024698;28;20052;-71
2022/05/08 03:57:58;;;;;;;4.55;2.30;;;;;;;21.51;39.02;102875.09;5046168;28;20436;-71
2022/05/08 04:00:24;;;;;;;4.38;2.40;;;;;;;21.45;39.09;102873.84;5039933;28;20509;-71
2022/05/08 04:02:50;;;;;;;5.28;2.20;;;;;;;21.46;39.10;102880.84;5036606;28;20165;-71
2022/05/08 04:05:16;;;;;;;3.85;1.92;;;;;;;21.49;38.98;102885.84;5040181;28;20033;-71
2022/05/08 04:07:41;;;;;;;3.95;1.92;;;;;;;21.45;39.01;102881.81;5041597;28;20595;-71
2022/05/08 04:10:08;;;;;;;3.30;2.10;;;;;;;21.41;38.93;102873.31;5038428;28;20049;-71
2022/05/08 04:12:35;;;;;;;5.00;2.03;;;;;;;21.48;39.00;102880.69;5041522;28;20580;-71
2022/05/08 04:15:00;;;;;;;5.13;2.17;;;;;;;21.46;39.03;102882.66;5040826;28;20094;-71
2022/05/08 04:17:28;;;;;;;5.85;2.03;;;;;;;21.47;38.96;102884.31;5046051;28;20042;-71
2022/05/08 04:19:55;;;;;;;3.83;1.98;;;;;;;21.47;39.03;102893.09;5042969;28;20048;-71
2022/05/08 04:25:06;;;;;;;3.83;2.10;;;;;;;21.53;38.81;102891.69;5042215;28;20485;-71
2022/05/08 04:27:37;;;;;;;5.38;2.03;;;;;;;21.48;38.93;102892.13;5039325;28;20041;-71
2022/05/08 04:30:03;;;;;;;5.72;1.95;;;;;;;21.47;39.01;102898.41;5040311;28;20036;-71
2022/05/08 04:32:29;;;;;;;4.07;2.10;;;;;;;21.53;38.84;102897.00;5043393;28;20431;-71
2022/05/08 04:34:54;;;;;;;3.97;2.10;;;;;;;21.51;38.88;102896.31;5022894;28;20051;-71
2022/05/08 04:37:20;;;;;;;2.75;2.20;;;;;;;21.47;39.02;102895.75;5038193;28;20029;-71
2022/05/08 04:39:45;;;;;;;2.45;1.80;;;;;;;21.47;38.90;102893.09;5023202;28;20075;-71
2022/05/08 04:42:11;;;;;;;5.47;2.05;;;;;;;21.51;38.88;102898.97;5040841;28;20677;-71
2022/05/08 04:44:37;;;;;;;2.58;2.03;;;;;;;21.45;39.17;102896.88;5040736;28;20051;-71
2022/05/08 04:47:03;;;;;;;4.38;2.25;;;;;;;21.52;38.70;102900.63;5038167;28;20086;-71
2022/05/08 04:49:29;;;;;;;4.45;2.10;;;;;;;21.48;38.91;102904.53;5033761;28;20045;-71
2022/05/08 04:51:55;;;;;;;3.58;1.95;;;;;;;21.47;38.89;102906.34;5039237;28;20387;-71
2022/05/08 04:54:23;;;;;;;2.72;1.70;;;;;;;21.48;38.92;102902.72;5035737;28;20024;-71
2022/05/08 04:56:49;;;;;;;2.67;1.88;;;;;;;21.47;38.94;102900.22;5040816;28;20055;-71
2022/05/08 04:59:15;;;;;;;3.65;2.08;;;;;;;21.51;38.97;102912.22;5037352;28;20045;-71
2022/05/08 05:01:41;;;;;;;4.03;1.80;;;;;;;21.49;38.71;102914.16;5041018;28;20040;-71
2022/05/08 05:04:07;;;;;;;2.20;1.90;;;;;;;21.53;38.68;102915.56;5037785;28;20052;-71
2022/05/08 05:06:33;;;;;;;2.63;1.73;;;;;;;21.49;39.08;102922.13;5042472;28;20063;-71
2022/05/08 05:08:59;;;;;;;3.00;1.90;;;;;;;21.50;38.86;102916.69;5042911;28;20036;-71
2022/05/08 05:11:25;;;;;;;5.15;1.98;;;;;;;21.48;38.98;102923.94;5021428;28;21744;-71
2022/05/08 05:13:50;;;;;;;4.10;2.00;;;;;;;21.51;38.92;102923.66;5041312;28;20033;-71
2022/05/08 05:16:16;;;;;;;4.45;2.10;;;;;;;21.50;38.87;102921.16;5039660;28;20048;-71
2022/05/08 05:18:41;;;;;;;3.70;2.05;;;;;;;21.47;38.67;102924.06;5025262;28;20041;-71
2022/05/08 05:21:07;;;;;;;2.78;1.98;;;;;;;21.48;38.61;102929.25;5035349;28;20032;-71
2022/05/08 05:23:35;;;;;;;3.95;1.90;;;;;;;21.49;38.66;102930.91;5039645;28;20503;-71
2022/05/08 05:26:01;;;;;;;3.08;1.80;;;;;;;21.46;38.72;102922.41;5008166;28;20141;-71
2022/05/08 05:28:27;;;;;;;3.58;1.98;;;;;;;21.46;38.57;102931.19;5040897;28;20044;-71
2022/05/08 05:30:52;;;;;;;3.22;1.90;;;;;;;21.46;38.75;102933.84;5036297;28;20043;-71
2022/05/08 05:33:19;;;;;;;3.38;1.83;;;;;;;21.42;38.88;102935.94;5043863;28;20041;-71
2022/05/08 05:35:44;;;;;;;2.58;1.88;;;;;;;21.43;38.50;102931.47;5039172;28;20048;-71
2022/05/08 05:38:10;;;;;;;3.30;1.70;;;;;;;21.42;38.82;102937.75;5040802;28;20033;-71
2022/05/08 05:40:36;;;;;;;2.58;1.85;;;;;;;21.40;38.46;102931.75;5039450;28;20060;-71
2022/05/08 05:43:01;;;;;;;2.67;1.70;;;;;;;21.39;38.64;102941.53;5026285;28;20490;-71
2022/05/08 05:45:27;;;;;;;2.95;1.90;;;;;;;21.39;38.30;102936.22;5038703;28;20117;-71
2022/05/08 05:47:53;;;;;;;2.25;1.77;;;;;;;21.32;38.72;102932.44;5044342;28;20025;-71
2022/05/08 05:50:25;;;;;;;3.33;1.90;;;;;;;21.39;38.50;102940.69;5024557;28;20033;-71
2022/05/08 05:52:52;;;;;;;2.90;1.95;;;;;;;21.42;38.49;102946.53;5041404;28;20044;-71
2022/05/08 05:55:18;;;;;;;2.40;1.65;;;;;;;21.37;38.42;102945.31;5036990;28;20758;-71
2022/05/08 05:57:44;;;;;;;3.92;1.67;;;;;;;21.32;38.29;102943.03;5012557;28;20493;-71
2022/05/08 06:00:16;;;;;;;2.78;2.08;;;;;;;21.34;38.51;102943.75;5032734;28;20037;-71
2022/05/08 06:02:45;;;;;;;3.83;1.58;;;;;;;21.38;38.42;102962.88;5043458;28;20044;-72
2022/05/08 06:05:12;;;;;;;2.97;1.70;;;;;;;21.31;38.61;102965.22;5037453;28;20036;-72
2022/05/08 06:07:39;;;;;;;2.85;1.80;;;;;;;21.32;38.62;102974.84;5039128;28;20153;-72
2022/05/08 06:10:10;;;;;;;3.53;1.83;;;;;;;21.33;38.50;102971.22;5025125;28;20260;-72
2022/05/08 06:12:36;;;;;;;3.60;1.73;;;;;;;21.33;38.25;102970.38;5037265;28;20065;-72
2022/05/08 06:15:02;;;;;;;2.88;1.85;;;;;;;21.42;38.47;102973.06;5025818;28;20029;-72
2022/05/08 06:17:27;;;;;;;2.47;1.77;;;;;;;21.67;37.94;102969.00;5049554;28;20883;-73
2022/05/08 06:19:53;;;;;;;3.42;1.77;;;;;;;21.67;38.22;102981.41;5036453;28;20044;-72
2022/05/08 06:22:19;;;;;;;3.17;2.03;;;;;;;21.69;38.33;102968.84;5048742;28;20041;-73
2022/05/08 06:24:45;;;;;;;2.63;1.75;;;;;;;21.87;38.18;102983.06;5053645;28;20472;-72
2022/05/08 06:27:10;;;;;;;4.13;1.80;;;;;;;21.97;37.93;102970.66;5043158;28;20032;-73
2022/05/08 06:29:36;;;;;;;4.13;1.83;;;;;;;21.95;37.65;102972.59;5043460;28;20041;-73
2022/05/08 06:32:02;;;;;;;2.90;1.60;;;;;;;21.99;37.53;102979.28;5039840;28;20497;-73
2022/05/08 06:34:29;;;;;;;3.15;1.55;;;;;;;22.02;37.31;102967.56;5040117;28;20037;-73
2022/05/08 06:36:55;;;;;;;3.38;1.70;;;;;;;22.19;37.49;102989.91;5035644;28;20428;-70
2022/05/08 06:39:21;;;;;;;3.08;1.52;;;;;;;22.28;37.02;102984.59;5040819;28;20111;-73
2022/05/08 06:41:47;;;;;;;3.25;1.58;;;;;;;22.36;36.77;102997.13;5032941;28;20805;-73
2022/05/08 06:44:14;;;;;;;3.17;1.90;;;;;;;22.40;36.82;102992.34;5038072;28;20037;-73
2022/05/08 06:46:40;;;;;;;4.75;1.58;;;;;;;22.34;36.84;102984.97;5019551;28;20044;-70
2022/05/08 06:49:07;;;;;;;2.80;1.58;;;;;;;22.37;36.80;102988.19;5035228;28;20024;-72
2022/05/08 06:51:34;;;;;;;2.25;1.60;;;;;;;22.28;37.00;102997.03;5036988;28;20055;-71
2022/05/08 06:54:00;;;;;;;3.33;1.92;;;;;;;22.24;36.90;102995.59;5040194;28;20503;-72
2022/05/08 06:56:26;;;;;;;2.78;1.40;;;;;;;22.20;36.97;102997.72;5042912;28;20048;-72
2022/05/08 07:01:41;;;;;;;2.08;1.33;;;;;;;22.33;36.97;102997.41;5019426;28;20130;-72
2022/05/08 07:04:11;;;;;;;2.60;1.60;;;;;;;22.34;36.71;103001.75;5041606;28;20115;-72
2022/05/08 07:06:38;;;;;;;3.15;1.45;;;;;;;22.33;36.51;103001.88;5040418;28;20073;-72
2022/05/08 07:09:05;;;;;;;4.00;1.65;;;;;;;22.35;36.91;103008.72;5039605;28;20040;-72
2022/05/08 07:11:30;;;;;;;2.50;1.50;;;;;;;22.38;36.68;103011.09;5036043;28;20033;-72
2022/05/08 07:13:59;;;;;;;2.58;1.50;;;;;;;22.38;36.73;103005.78;5034000;28;20040;-72
2022/05/08 07:16:26;;;;;;;3.00;1.73;;;;;;;22.39;36.45;103011.91;5051880;28;20055;-72
2022/05/08 07:18:51;;;;;;;2.10;1.52;;;;;;;22.38;36.38;103010.25;5033773;28;20033;-71
2022/05/08 07:21:19;;;;;;;2.67;1.35;;;;;;;22.30;36.63;103000.38;5034460;28;20040;-72
2022/05/08 07:23:44;;;;;;;3.10;1.63;;;;;;;22.34;36.45;103014.19;5030402;28;20438;-71
2022/05/08 07:26:10;;;;;;;4.35;1.75;;;;;;;22.35;36.37;103013.19;5036967;28;20067;-71
2022/05/08 07:28:35;;;;;;;3.10;1.50;;;;;;;22.33;36.50;103020.47;5038904;28;20782;-71
2022/05/08 07:31:03;;;;;;;2.95;1.50;;;;;;;22.30;36.56;103016.28;5024354;28;20743;-72
2022/05/08 07:33:30;;;;;;;4.68;1.73;;;;;;;22.30;36.59;103016.28;5043450;28;20041;-71
2022/05/08 07:36:14;;;;;;;3.05;1.70;;;;;;;22.23;36.77;103009.84;5038884;28;20029;-72
2022/05/08 07:38:44;;;;;;;4.38;1.67;;;;;;;22.24;36.95;103024.81;5041956;28;20041;-72
2022/05/08 07:41:14;;;;;;;;;;;;;;;22.22;36.59;103019.63;5041972;28;20590;-72
2022/05/08 07:43:44;;;;;;;4.38;2.13;;;;;;;22.21;36.12;103017.13;5046916;28;20461;-71
2022/05/08 07:46:10;;;;;;;;;;;;;;;22.24;35.65;103017.69;5043185;28;20055;-71
2022/05/08 07:48:35;;;;;;;4.85;1.75;;;;;;;22.18;35.75;103020.91;5028556;28;19916;-71
2022/05/08 07:51:02;;;;;;;3.67;2.22;;;;;;;22.18;35.57;103020.91;5042014;28;20043;-73
2022/05/08 07:53:29;;;;;;;4.00;2.15;;;;;;;22.14;35.88;103022.19;5042593;28;20052;-71
2022/05/08 07:55:55;;;;;;;4.78;2.03;;;;;;;22.08;35.77;103027.19;5044262;28;21647;-70
2022/05/08 07:58:28;;;;;;;4.25;2.05;;;;;;;22.09;35.28;103024.44;5039724;28;20060;-70
2022/05/08 08:00:55;;;;;;;4.60;2.25;;;;;;;22.05;35.06;103023.03;5039347;28;20474;-71
2022/05/08 08:03:22;;;;;;;4.32;2.05;;;;;;;22.09;35.36;103024.44;5038470;28;21016;-70
2022/05/08 08:05:48;;;;;;;3.80;1.98;;;;;;;22.11;35.05;103027.78;5043702;28;20063;-71
2022/05/08 08:08:15;;;;;;;5.47;2.17;;;;;;;22.18;35.04;103034.19;5039791;28;20650;-70
2022/05/08 08:10:41;;;;;;;4.32;2.17;;;;;;;22.19;35.00;103032.38;5043696;28;20052;-71
2022/05/08 08:13:06;;;;;;;3.30;1.95;;;;;;;22.20;34.93;103028.72;5048217;28;20037;-71
2022/05/08 08:15:32;;;;;;;5.97;2.55;;;;;;;22.24;34.98;103028.28;5023940;28;20052;-71
2022/05/08 08:17:57;;;;;;;4.32;1.85;;;;;;;22.20;35.06;103034.03;5038454;28;20044;-71
2022/05/08 08:20:23;;;;;;;5.45;2.13;;;;;;;22.17;35.11;103024.53;5046378;28;20391;-71
2022/05/08 08:22:48;;;;;;;4.47;2.10;;;;;;;22.19;34.59;103030.53;5041604;28;20819;-71
2022/05/08 08:25:14;;;;;;;3.47;1.88;;;;;;;22.23;34.67;103039.06;5031854;28;20064;-71
2022/05/08 08:27:41;;;;;;;2.90;1.55;;;;;;;22.27;34.65;103032.50;5026862;28;20127;-71
2022/05/08 08:30:07;;;;;;;4.07;2.08;;;;;;;22.29;34.66;103031.38;5045512;28;20048;-71
2022/05/08 08:32:33;;;;;;;7.07;1.83;;;;;;;22.28;34.61;103036.84;5042052;28;20041;-71
2022/05/08 08:34:59;;;;;;;3.80;1.77;;;;;;;22.32;34.75;103043.53;5043747;28;20580;-72
2022/05/08 08:37:24;;;;;;;5.88;1.85;;;;;;;22.32;34.46;103040.88;5044881;28;20045;-71
2022/05/08 08:39:50;;;;;;;6.40;2.35;;;;;;;22.29;34.39;103047.31;5041140;28;20266;-71
2022/05/08 08:42:29;;;;;;;3.53;1.85;;;;;;;22.27;34.69;103036.00;5040549;28;20139;-71
2022/05/08 08:47:55;;;;;;;3.28;2.00;;;;;;;22.27;35.20;103038.66;5043231;28;20040;-73
2022/05/08 08:50:25;;;;;;;4.95;2.00;;;;;;;22.20;36.04;103032.22;5039120;28;20035;-74
2022/05/08 08:52:51;;;;;;;4.90;2.17;;;;;;;22.27;36.01;103037.81;5047274;28;20612;-74
2022/05/08 08:55:17;;;;;;;4.18;1.75;;;;;;;22.29;35.98;103036.69;5042629;28;20604;-74
2022/05/08 08:57:44;;;;;;;5.28;1.92;;;;;;;22.29;35.95;103027.88;5047289;28;20037;-73
2022/05/08 09:00:10;;;;;;;3.92;1.92;;;;;;;22.26;36.44;103029.00;5048143;28;20468;-74
2022/05/08 09:02:35;;;;;;;3.97;2.10;;;;;;;22.26;36.34;103034.31;5046120;28;20527;-73
2022/05/08 09:05:07;;;;;;;3.15;1.90;;;;;;;22.21;36.16;103025.94;5039269;28;20033;-74
2022/05/08 09:07:38;;;;;;;2.30;1.55;;;;;;;22.27;36.15;103041.31;5045263;28;20064;-74
2022/05/08 09:10:13;;;;;;;4.88;1.80;;;;;;;22.15;36.23;103020.38;5045315;28;20322;-75
2022/05/08 09:12:40;;;;;;;4.30;1.55;;;;;;;22.27;36.52;103037.81;4998099;28;20059;-70
2022/05/08 09:15:25;;;;;;;4.78;2.05;;;;;;;22.37;36.39;103043.09;5040397;28;20036;-74
2022/05/08 09:18:04;;;;;;;5.82;2.22;;;;;;;22.25;36.91;103050.34;5016371;28;21367;-73
2022/05/08 09:20:41;;;;;;;6.13;2.20;;;;;;;22.25;36.14;103045.06;5041766;28;20048;-73
2022/05/08 09:23:16;;;;;;;6.78;2.22;;;;;;;22.18;36.38;103043.97;5013345;28;20041;-74
2022/05/08 09:25:46;;;;;;;5.68;2.53;;;;;;;22.27;35.94;103046.63;5041607;28;20057;-73
2022/05/08 09:28:15;;;;;;;9.13;2.28;;;;;;;22.23;35.94;103045.19;5016149;28;20030;-74
2022/05/08 09:31:05;;;;;;;9.15;2.17;;;;;;;22.24;35.60;103054.00;5037575;28;20037;-75
2022/05/08 09:33:32;;;;;;;6.18;1.70;;;;;;;22.13;35.83;103051.53;5018819;28;20071;-72
2022/05/08 09:36:00;;;;;;;6.35;2.40;;;;;;;22.06;35.72;103043.25;5022160;28;20051;-72
2022/05/08 09:39:14;;;;;;;9.07;2.15;;;;;;;22.02;36.61;103044.50;5001066;28;20133;-71
2022/05/08 09:41:42;;;;;;;4.88;2.40;;;;;;;21.91;36.92;103036.72;4933123;28;20082;-72
2022/05/08 09:44:13;;;;;;;9.68;2.50;;;;;;;21.93;36.44;103043.53;4994278;28;20814;-72
2022/05/08 09:46:44;;;;;;;7.38;1.92;;;;;;;21.91;36.30;103034.06;5039113;28;20041;-71
2022/05/08 09:49:12;;;;;;;6.55;2.35;;;;;;;21.91;36.06;103042.00;5017987;28;20653;-72
2022/05/08 09:51:41;;;;;;;6.35;2.15;;;;;;;22.04;35.31;103037.22;5042028;28;20059;-72
2022/05/08 09:54:08;;;;;;;5.18;1.90;;;;;;;22.00;35.04;103026.06;5022719;28;20041;-73
2022/05/08 09:56:35;;;;;;;9.32;2.22;;;;;;;21.96;35.00;103037.13;5042140;28;20032;-72
2022/05/08 09:59:01;;;;;;;8.95;3.03;;;;;;;21.93;34.76;103032.94;4999820;28;20033;-72
2022/05/08 10:01:27;;;;;;;5.28;2.20;;;;;;;21.87;35.07;103033.47;5027502;28;20036;-72
2022/05/08 10:03:55;;;;;;;5.50;2.00;;;;;;;21.92;34.64;103033.91;5019542;28;20041;-72
2022/05/08 10:06:21;;;;;;;6.70;2.40;;;;;;;21.92;34.19;103041.88;5039209;28;20381;-72
2022/05/08 10:08:48;;;;;;;8.45;3.05;;;;;;;21.86;34.71;103041.56;5020947;28;20494;-72
2022/05/08 10:14:03;;;;;;;4.32;2.20;;;;;;;21.69;35.85;103037.78;5016936;28;20024;-71
2022/05/08 10:16:48;;;;;;;5.15;2.35;;;;;;;21.71;36.16;103031.38;5041043;28;20123;-77
2022/05/08 10:19:22;;;;;;;8.07;2.55;;;;;;;21.65;36.34;103029.28;5016049;28;20230;-75
2022/05/08 10:21:57;;;;;;;4.97;2.13;;;;;;;21.62;36.16;103023.44;5043766;28;20047;-75
2022/05/08 10:24:30;;;;;;;7.90;2.28;;;;;;;21.58;35.95;103022.88;4996935;28;20049;-75
2022/05/08 10:27:26;;;;;;;6.22;2.00;;;;;;;21.56;36.02;103029.28;5003867;28;20045;-74
2022/05/08 10:29:52;;;;;;;6.35;2.30;;;;;;;21.57;35.85;103026.50;4981657;28;20096;-75
2022/05/08 10:35:16;;;;;;;8.07;2.53;;;;;;;21.45;35.98;103030.25;4994714;28;20030;-77
2022/05/08 10:37:49;;;;;;;8.52;2.65;;;;;;;21.41;36.35;103026.19;4978873;28;20692;-77
2022/05/08 10:40:21;;;;;;;9.55;3.00;;;;;;;21.41;36.04;103042.94;5004290;28;21288;-74
2022/05/08 10:42:48;;;;;;;5.97;2.25;;;;;;;21.40;35.69;103020.06;4973221;28;20172;-74
2022/05/08 10:45:28;;;;;;;7.95;2.30;;;;;;;21.41;35.79;103028.84;5005705;28;20025;-74
2022/05/08 10:47:54;;;;;;;7.45;2.50;;;;;;;21.41;35.41;103021.75;4979751;28;20275;-74
2022/05/08 10:50:19;;;;;;;4.90;2.45;;;;;;;21.35;35.37;103016.97;5000214;28;20029;-78
2022/05/08 10:52:46;;;;;;;9.52;2.60;;;;;;;21.48;35.17;103015.88;4984201;28;20042;-73
2022/05/08 10:55:15;;;;;;;4.40;2.17;;;;;;;21.50;34.79;103028.00;5008292;28;20830;-68
2022/05/08 10:57:42;;;;;;;7.97;2.53;;;;;;;21.55;34.98;103022.31;4986373;28;20045;-69
2022/05/08 11:00:10;;;;;;;6.30;2.55;;;;;;;21.56;35.07;103010.75;5004810;28;20048;-68
2022/05/08 11:02:54;;;;;;;6.57;2.55;;;;;;;21.59;35.11;103016.59;4987339;28;20064;-68
2022/05/08 11:05:33;;;;;;;8.10;2.40;;;;;;;21.60;35.08;103020.91;5000656;28;20488;-67
2022/05/08 11:08:04;;;;;;;9.63;2.65;;;;;;;21.62;35.08;103018.13;4967095;28;20418;-67
2022/05/08 11:10:40;;;;;;;8.38;2.25;;;;;;;21.60;34.69;103009.47;5004240;28;20041;-70
2022/05/08 11:13:14;;;;;;;6.03;2.30;;;;;;;21.67;34.68;103023.84;4976150;28;20113;-70
2022/05/08 11:15:46;;;;;;;8.52;2.20;;;;;;;21.66;34.81;103016.88;4990277;28;20037;-68
2022/05/08 11:18:14;;;;;;;6.43;2.55;;;;;;;21.71;35.17;103011.97;4997766;28;20037;-69
2022/05/08 11:20:53;;;;;;;7.57;2.47;;;;;;;21.79;35.23;103006.00;4972679;28;20796;-68
2022/05/08 11:23:33;;;;;;;8.45;2.05;;;;;;;21.86;35.31;103012.41;4994160;28;22204;-68
2022/05/08 11:26:05;;;;;;;9.75;2.08;;;;;;;21.95;34.82;103008.91;4964313;28;20049;-69
2022/05/08 11:28:32;;;;;;;3.35;1.98;;;;;;;22.01;34.37;103013.63;5004471;28;20041;-68
2022/05/08 11:30:59;;;;;;;7.65;2.60;;;;;;;22.02;34.37;103013.50;4966059;28;20037;-69
2022/05/08 11:36:30;;;;;;;5.35;2.20;;;;;;;22.10;34.29;103007.53;4969542;28;20061;-68
2022/05/08 11:39:25;;;;;;;4.85;2.10;;;;;;;22.08;34.10;103008.63;4996799;28;20077;-69
2022/05/08 11:41:51;;;;;;;5.80;2.35;;;;;;;22.07;34.32;103002.47;4995986;28;20519;-68
2022/05/08 11:44:20;;;;;;;5.28;2.70;;;;;;;22.08;34.06;102998.84;4975653;28;20714;-68
2022/05/08 11:46:56;;;;;;;4.03;2.10;;;;;;;22.07;34.34;103001.66;5000902;28;20081;-68
2022/05/08 11:49:23;;;;;;;6.20;2.22;;;;;;;22.13;34.28;103006.41;4971097;28;20080;-69
2022/05/08 11:52:01;;;;;;;5.65;2.30;;;;;;;22.11;34.16;103003.06;4996453;28;20377;-69